createdAt,value
2022-11-22T00:01:12.999Z,77.67
2022-11-22T00:03:41.005Z,72.63
2022-11-22T00:06:08.935Z,68.93
2022-11-22T00:08:36.892Z,71.23
2022-11-22T00:11:04.832Z,76.00
2022-11-22T00:13:34.101Z,74.87
2022-11-22T00:16:03.871Z,75.80
2022-11-22T00:18:32.224Z,77.83
2022-11-22T00:21:06.103Z,72.43
2022-11-22T00:23:34.160Z,74.27
2022-11-22T00:26:02.089Z,69.50
2022-11-22T00:28:30.063Z,71.80
2022-11-22T00:30:59.365Z,71.57
2022-11-22T00:33:27.285Z,73.07
2022-11-22T00:35:56.321Z,69.73
2022-11-22T00:38:24.207Z,67.40
2022-11-22T00:40:52.152Z,74.60
2022-11-22T00:43:20.091Z,66.23
2022-11-22T00:45:48.054Z,62.63
2022-11-22T00:48:17.374Z,68.77
2022-11-22T00:50:45.318Z,70.43
2022-11-22T00:53:13.344Z,68.30
2022-11-22T00:55:41.275Z,69.73
2022-11-22T00:58:09.313Z,72.27
2022-11-22T01:00:37.274Z,68.47
2022-11-22T01:03:05.298Z,64.50
2022-11-22T01:05:34.610Z,71.47
2022-11-22T01:08:02.559Z,69.10
2022-11-22T01:10:30.502Z,70.57
2022-11-22T01:12:58.982Z,70.07
2022-11-22T01:15:27.002Z,76.30
2022-11-22T01:17:54.987Z,68.93
2022-11-22T01:20:22.925Z,68.43
2022-11-22T01:22:52.316Z,67.40
2022-11-22T01:25:20.356Z,65.87
2022-11-22T01:27:50.905Z,72.83
2022-11-22T01:30:19.385Z,64.47
2022-11-22T01:32:47.336Z,75.70
2022-11-22T01:35:15.409Z,75.20
2022-11-22T01:37:43.430Z,81.00
2022-11-22T01:40:13.196Z,69.80
2022-11-22T01:42:45.046Z,70.80
2022-11-22T01:45:46.322Z,74.27
2022-11-22T01:48:41.955Z,75.50
2022-11-22T01:51:19.439Z,75.23
2022-11-22T01:53:47.756Z,74.43
2022-11-22T01:56:18.934Z,75.97
2022-11-22T01:58:49.752Z,76.90
2022-11-22T02:01:17.879Z,78.80
2022-11-22T02:03:49.294Z,80.17
2022-11-22T02:06:18.315Z,80.33
2022-11-22T02:08:57.687Z,74.57
2022-11-22T02:11:33.868Z,78.47
2022-11-22T02:14:03.001Z,74.33
2022-11-22T02:16:31.030Z,77.20
2022-11-22T02:18:59.043Z,81.03
2022-11-22T02:21:27.125Z,78.37
2022-11-22T02:23:59.587Z,76.43
2022-11-22T02:26:30.313Z,81.93
2022-11-22T02:29:03.935Z,80.77
2022-11-22T02:31:38.031Z,75.83
2022-11-22T02:34:06.234Z,83.27
2022-11-22T02:36:38.779Z,78.13
2022-11-22T02:39:08.154Z,77.10
2022-11-22T02:41:38.276Z,72.40
2022-11-22T02:44:07.527Z,79.57
2022-11-22T02:46:35.416Z,79.97
2022-11-22T02:49:03.376Z,80.10
2022-11-22T02:51:31.297Z,79.37
2022-11-22T02:53:59.172Z,83.70
2022-11-22T02:56:27.061Z,79.70
2022-11-22T02:58:56.306Z,77.57
2022-11-22T03:01:24.283Z,84.93
2022-11-22T03:03:52.254Z,77.57
2022-11-22T03:06:20.182Z,86.20
2022-11-22T03:08:51.897Z,83.57
2022-11-22T03:11:24.216Z,81.20
2022-11-22T03:13:52.385Z,80.13
2022-11-22T03:16:21.770Z,77.53
2022-11-22T03:18:49.697Z,84.00
2022-11-22T03:21:17.668Z,80.27
2022-11-22T03:23:45.649Z,86.30
2022-11-22T03:26:13.633Z,78.27
2022-11-22T03:28:41.536Z,82.13
2022-11-22T03:31:09.858Z,94.50
2022-11-22T03:33:39.198Z,88.97
2022-11-22T03:36:07.241Z,81.53
2022-11-22T03:38:36.139Z,83.00
2022-11-22T03:41:04.093Z,89.03
2022-11-22T03:43:32.172Z,94.63
2022-11-22T03:46:00.242Z,92.57
2022-11-22T03:48:28.260Z,84.17
2022-11-22T03:51:04.546Z,93.10
2022-11-22T03:53:32.935Z,86.83
2022-11-22T03:56:01.005Z,95.57
2022-11-22T03:58:28.987Z,86.10
2022-11-22T04:00:57.418Z,88.23
2022-11-22T04:03:25.682Z,89.67
2022-11-22T04:05:53.660Z,92.00
2022-11-22T04:08:22.964Z,87.07
2022-11-22T04:10:51.843Z,90.13
2022-11-22T04:13:20.146Z,101.80
2022-11-22T04:15:47.062Z,91.50
2022-11-22T04:18:15.969Z,93.67
2022-11-22T04:21:01.373Z,88.00
2022-11-22T04:23:34.041Z,87.40
2022-11-22T04:26:01.386Z,99.63
2022-11-22T04:29:01.481Z,92.20
2022-11-22T04:31:34.864Z,90.13
2022-11-22T04:34:02.847Z,94.43
2022-11-22T04:36:30.706Z,89.90
2022-11-22T04:39:00.075Z,98.83
2022-11-22T04:41:27.991Z,100.97
2022-11-22T04:44:13.498Z,89.30
2022-11-22T04:46:41.368Z,90.23
2022-11-22T04:49:09.398Z,95.57
2022-11-22T04:51:55.082Z,103.17
2022-11-22T04:54:24.478Z,100.73
2022-11-22T04:56:52.411Z,101.20
2022-11-22T04:59:20.370Z,98.93
2022-11-22T05:01:48.319Z,88.80
2022-11-22T05:04:16.392Z,101.47
2022-11-22T05:06:44.288Z,90.73
2022-11-22T05:09:12.248Z,84.37
2022-11-22T05:11:41.634Z,81.03
2022-11-22T05:14:10.734Z,82.00
2022-11-22T05:16:38.792Z,89.37
2022-11-22T05:19:06.782Z,79.60
2022-11-22T05:21:35.746Z,83.93
2022-11-22T05:24:02.921Z,86.40
2022-11-22T05:26:32.890Z,95.30
2022-11-22T05:29:06.286Z,91.60
2022-11-22T05:31:35.208Z,98.80
2022-11-22T05:34:03.552Z,106.90
2022-11-22T05:36:33.624Z,107.20
2022-11-22T05:39:02.229Z,102.87
2022-11-22T05:41:30.391Z,93.90
2022-11-22T05:43:58.878Z,109.80
2022-11-22T05:46:30.297Z,113.97
2022-11-22T05:48:59.403Z,111.40
2022-11-22T05:51:33.926Z,104.07
2022-11-22T05:54:03.067Z,106.77
2022-11-22T05:56:31.082Z,104.50
2022-11-22T05:58:59.260Z,109.27
2022-11-22T06:01:28.566Z,127.80
2022-11-22T06:03:56.489Z,104.87
2022-11-22T06:06:24.482Z,118.07
2022-11-22T06:08:52.518Z,110.27
2022-11-22T06:11:22.119Z,105.47
2022-11-22T06:13:55.342Z,114.37
2022-11-22T06:16:23.873Z,97.93
2022-11-22T06:18:54.888Z,102.27
2022-11-22T06:21:24.819Z,114.77
2022-11-22T06:23:53.780Z,99.67
2022-11-22T06:26:23.458Z,119.93
2022-11-22T06:28:52.034Z,106.23
2022-11-22T06:31:21.885Z,119.23
2022-11-22T06:33:50.204Z,99.53
2022-11-22T06:36:21.269Z,111.43
2022-11-22T06:38:49.863Z,121.50
2022-11-22T06:41:19.368Z,109.37
2022-11-22T06:43:49.754Z,109.40
2022-11-22T06:46:18.691Z,111.67
2022-11-22T06:48:47.026Z,113.27
2022-11-22T06:51:16.995Z,105.53
2022-11-22T06:53:48.523Z,114.93
2022-11-22T06:56:18.914Z,119.50
2022-11-22T06:58:47.882Z,113.20
2022-11-22T07:01:17.478Z,126.13
2022-11-22T07:03:45.663Z,133.13
2022-11-22T07:06:14.974Z,106.97
2022-11-22T07:08:44.189Z,122.70
2022-11-22T07:11:14.850Z,108.10
2022-11-22T07:13:43.126Z,108.53
2022-11-22T07:16:13.279Z,119.47
2022-11-22T07:18:41.620Z,113.53
2022-11-22T07:21:13.458Z,108.60
2022-11-22T07:23:42.937Z,134.80
2022-11-22T07:26:11.116Z,130.03
2022-11-22T07:28:40.836Z,141.10
2022-11-22T07:31:10.624Z,133.77
2022-11-22T07:33:39.044Z,149.33
2022-11-22T07:36:08.574Z,146.27
2022-11-22T07:38:36.872Z,145.60
2022-11-22T07:41:05.302Z,147.63
2022-11-22T07:43:38.417Z,129.87
2022-11-22T07:46:12.576Z,141.17
2022-11-22T07:48:40.542Z,145.53
2022-11-22T07:51:09.148Z,140.03
2022-11-22T07:53:37.127Z,137.80
2022-11-22T07:56:06.131Z,143.57
2022-11-22T07:58:34.708Z,132.17
2022-11-22T08:01:08.049Z,140.47
2022-11-22T08:03:36.350Z,136.20
2022-11-22T08:06:06.114Z,155.93
2022-11-22T08:08:34.976Z,130.40
2022-11-22T08:11:03.460Z,150.77
2022-11-22T08:13:31.886Z,132.77
2022-11-22T08:16:05.618Z,137.30
2022-11-22T08:18:35.884Z,142.70
2022-11-22T08:21:05.496Z,139.10
2022-11-22T08:23:33.522Z,143.70
2022-11-22T08:26:01.588Z,147.53
2022-11-22T08:28:29.552Z,126.47
2022-11-22T08:31:02.252Z,148.07
2022-11-22T08:33:30.242Z,141.87
2022-11-22T08:35:59.529Z,134.20
2022-11-22T08:38:27.646Z,141.50
2022-11-22T08:40:57.551Z,135.47
2022-11-22T08:43:25.667Z,135.67
2022-11-22T08:45:56.833Z,144.80
2022-11-22T08:48:25.016Z,126.07
2022-11-22T08:50:54.092Z,140.23
2022-11-22T08:53:23.733Z,135.03
2022-11-22T08:55:51.775Z,150.07
2022-11-22T08:58:19.991Z,144.83
2022-11-22T09:00:48.199Z,166.30
2022-11-22T09:03:16.187Z,138.43
2022-11-22T09:08:36.272Z,150.50
2022-11-22T09:11:08.397Z,142.80
2022-11-22T09:13:36.678Z,140.17
2022-11-22T09:16:06.157Z,138.07
2022-11-22T09:18:34.113Z,124.10
2022-11-22T09:21:02.894Z,124.27
2022-11-22T09:23:30.862Z,140.67
2022-11-22T09:26:01.612Z,138.20
2022-11-22T09:28:30.138Z,139.40
2022-11-22T09:31:02.186Z,136.30
2022-11-22T09:33:30.844Z,135.27
2022-11-22T09:36:03.104Z,141.03
2022-11-22T09:38:31.618Z,147.90
2022-11-22T09:41:03.571Z,155.27
2022-11-22T09:43:42.452Z,139.63
2022-11-22T09:46:22.835Z,141.50
2022-11-22T09:49:13.647Z,144.40
2022-11-22T09:51:47.554Z,154.77
2022-11-22T09:54:21.348Z,149.30
2022-11-22T09:56:53.590Z,152.63
2022-11-22T09:59:25.532Z,150.07
2022-11-22T10:02:11.687Z,144.53
2022-11-22T10:04:49.465Z,144.67
2022-11-22T10:07:22.396Z,149.33
2022-11-22T10:09:55.820Z,149.37
2022-11-22T10:12:28.826Z,146.73
2022-11-22T10:15:04.967Z,145.57
2022-11-22T10:17:45.040Z,145.60
2022-11-22T10:20:17.083Z,139.77
2022-11-22T10:22:45.200Z,149.57
2022-11-22T10:25:18.139Z,148.27
2022-11-22T10:27:54.926Z,151.37
2022-11-22T10:30:26.191Z,144.43
2022-11-22T10:33:01.339Z,133.33
2022-11-22T10:35:54.789Z,126.37
2022-11-22T10:38:43.062Z,127.27
2022-11-22T10:41:25.080Z,120.57
2022-11-22T10:44:04.723Z,116.63
2022-11-22T10:46:46.141Z,120.17
2022-11-22T10:49:23.946Z,116.50
2022-11-22T10:52:02.300Z,121.37
2022-11-22T10:54:35.836Z,120.83
2022-11-22T10:57:13.692Z,128.07
2022-11-22T10:59:52.978Z,114.30
2022-11-22T11:02:54.534Z,121.93
2022-11-22T11:05:27.170Z,99.63
2022-11-22T11:08:04.141Z,117.30
2022-11-22T11:10:44.964Z,104.13
2022-11-22T11:13:22.247Z,117.27
2022-11-22T11:15:56.353Z,109.30
2022-11-22T11:18:29.910Z,103.77
2022-11-22T11:20:57.902Z,104.27
2022-11-22T11:23:26.060Z,111.53
2022-11-22T11:25:54.513Z,101.67
2022-11-22T11:28:25.001Z,97.50
2022-11-22T11:30:57.383Z,102.77
2022-11-22T11:33:28.519Z,101.87
2022-11-22T11:36:02.584Z,89.03
2022-11-22T11:38:37.024Z,115.87
2022-11-22T11:41:19.816Z,102.53
2022-11-22T11:43:48.474Z,99.63
2022-11-22T11:46:19.428Z,96.83
2022-11-22T11:48:48.008Z,100.40
2022-11-22T11:51:19.366Z,100.27
2022-11-22T11:53:58.851Z,89.57
2022-11-22T11:56:33.327Z,98.50
2022-11-22T11:59:07.527Z,95.73
2022-11-22T12:01:39.109Z,95.40
2022-11-22T12:04:08.492Z,96.30
2022-11-22T12:06:37.281Z,94.07
2022-11-22T12:09:28.015Z,93.90
2022-11-22T12:11:59.536Z,94.77
2022-11-22T12:14:48.763Z,92.70
2022-11-22T12:17:25.922Z,91.83
2022-11-22T12:20:03.520Z,87.87
2022-11-22T12:22:53.958Z,86.37
2022-11-22T12:25:33.227Z,86.40
2022-11-22T12:28:11.447Z,81.33
2022-11-22T12:30:40.304Z,83.13
2022-11-22T12:33:19.034Z,69.77
2022-11-22T12:35:48.571Z,81.73
2022-11-22T12:38:20.398Z,76.00
2022-11-22T12:40:51.837Z,80.63
2022-11-22T12:43:24.258Z,85.53
2022-11-22T12:45:54.900Z,70.73
2022-11-22T12:48:30.476Z,68.60
2022-11-22T12:51:04.586Z,61.93
2022-11-22T12:53:35.949Z,57.60
2022-11-22T12:56:14.422Z,61.20
2022-11-22T12:58:50.953Z,68.43
2022-11-22T13:01:23.398Z,68.53
2022-11-22T13:03:57.168Z,70.53
2022-11-22T13:06:28.826Z,64.17
2022-11-22T13:09:04.082Z,64.17
2022-11-22T13:11:35.294Z,64.87
2022-11-22T13:14:07.472Z,73.70
2022-11-22T13:16:36.123Z,63.03
2022-11-22T13:19:12.641Z,56.00
2022-11-22T13:21:51.381Z,61.40
2022-11-22T13:24:35.613Z,62.20
2022-11-22T13:27:13.044Z,56.73
2022-11-22T13:29:43.909Z,59.97
2022-11-22T13:32:20.556Z,52.17
2022-11-22T13:35:31.496Z,62.43
2022-11-22T13:38:01.661Z,56.77
2022-11-22T13:40:32.336Z,58.43
2022-11-22T13:43:50.416Z,58.83
2022-11-22T13:46:57.619Z,49.23
2022-11-22T13:49:41.218Z,48.90
2022-11-22T13:52:50.576Z,57.60
2022-11-22T13:55:37.499Z,44.00
2022-11-22T13:58:52.448Z,56.57
2022-11-22T14:01:55.160Z,55.50
2022-11-22T14:04:43.886Z,50.30
2022-11-22T14:07:38.200Z,59.50
2022-11-22T14:10:27.984Z,51.67
2022-11-22T14:13:30.366Z,54.50
2022-11-22T14:16:17.375Z,56.20
2022-11-22T14:18:54.609Z,41.43
2022-11-22T14:21:44.877Z,49.23
2022-11-22T14:24:25.464Z,49.30
2022-11-22T14:27:00.779Z,48.77
2022-11-22T14:29:54.672Z,49.73
2022-11-22T14:32:24.979Z,37.10
2022-11-22T14:35:29.172Z,42.47
2022-11-22T14:38:20.871Z,39.80
2022-11-22T14:40:50.460Z,48.07
2022-11-22T14:43:29.806Z,52.57
2022-11-22T14:46:02.552Z,41.53
2022-11-22T14:48:34.761Z,42.57
2022-11-22T14:51:09.260Z,51.83
2022-11-22T14:53:42.066Z,51.00
2022-11-22T14:56:17.301Z,49.60
2022-11-22T14:59:02.361Z,47.77
2022-11-22T15:02:05.291Z,49.40
2022-11-22T15:09:10.053Z,44.27
2022-11-22T15:09:13.540Z,40.83
2022-11-22T15:11:49.200Z,45.33
2022-11-22T15:14:49.804Z,48.17
2022-11-22T15:57:37.923Z,53.30
2022-11-22T16:00:11.278Z,61.40
2022-11-22T16:02:48.319Z,57.00
2022-11-22T16:06:09.335Z,59.93
2022-11-22T16:08:15.734Z,55.63
2022-11-22T16:10:49.717Z,58.27
2022-11-22T16:13:27.690Z,59.83
2022-11-22T16:16:07.411Z,62.50
2022-11-22T16:18:35.425Z,62.67
2022-11-22T16:21:06.290Z,66.67
2022-11-22T16:23:35.293Z,58.27
2022-11-22T16:26:21.825Z,63.53
2022-11-22T16:28:51.498Z,68.80
2022-11-22T16:31:24.267Z,66.83
2022-11-22T16:33:53.244Z,64.37
2022-11-22T16:36:24.183Z,65.93
2022-11-22T16:38:52.462Z,67.07
2022-11-22T16:41:21.889Z,65.13
2022-11-22T16:43:51.082Z,58.97
2022-11-22T16:46:19.745Z,62.93
2022-11-22T16:48:47.981Z,65.20
2022-11-22T16:51:19.345Z,67.27
2022-11-22T16:53:50.257Z,64.43
2022-11-22T16:56:20.316Z,59.07
2022-11-22T16:58:49.322Z,85.53
2022-11-22T17:01:19.956Z,65.83
2022-11-22T17:03:49.458Z,53.53
2022-11-22T17:06:19.823Z,58.80
2022-11-22T17:08:51.210Z,59.73
2022-11-22T17:11:21.960Z,62.40
2022-11-22T17:13:50.036Z,62.77
2022-11-22T17:16:18.710Z,61.63
2022-11-22T17:18:47.556Z,70.07
2022-11-22T17:21:19.217Z,73.13
2022-11-22T17:23:49.506Z,66.63
2022-11-22T17:26:17.425Z,61.73
2022-11-22T17:28:45.360Z,60.07
2022-11-22T17:31:14.925Z,58.27
2022-11-22T17:33:43.206Z,55.63
2022-11-22T17:36:21.874Z,67.33
2022-11-22T17:38:51.185Z,63.47
2022-11-22T17:41:19.267Z,68.57
2022-11-22T17:43:47.353Z,65.00
2022-11-22T17:46:19.069Z,58.87
2022-11-22T17:48:52.793Z,66.00
2022-11-22T17:51:21.764Z,69.40
2022-11-22T17:53:51.457Z,59.23
2022-11-22T17:56:20.282Z,62.43
2022-11-22T17:58:48.713Z,70.83
2022-11-22T18:01:18.542Z,59.90
2022-11-22T18:03:47.753Z,57.60
2022-11-22T18:06:16.843Z,59.77
2022-11-22T18:08:47.164Z,57.50
2022-11-22T18:11:17.517Z,60.07
2022-11-22T18:13:45.821Z,67.10
2022-11-22T18:16:15.738Z,65.40
2022-11-22T18:18:59.401Z,63.97
2022-11-22T18:21:29.265Z,66.77
2022-11-22T18:23:57.908Z,74.47
2022-11-22T18:26:45.405Z,79.83
2022-11-22T18:29:41.131Z,90.00
2022-11-22T18:32:03.521Z,78.30
2022-11-22T18:34:31.515Z,75.17
2022-11-22T18:37:02.555Z,81.57
2022-11-22T18:39:32.548Z,75.57
2022-11-22T18:42:02.331Z,75.17
2022-11-22T18:44:30.453Z,72.47
2022-11-22T18:46:58.476Z,81.33
2022-11-22T18:49:26.457Z,65.90
2022-11-22T18:51:54.423Z,82.17
2022-11-22T18:54:22.830Z,82.13
2022-11-22T18:56:51.314Z,80.80
2022-11-22T18:59:20.848Z,84.77
2022-11-22T19:01:48.863Z,86.97
2022-11-22T19:04:16.982Z,78.67
2022-11-22T19:06:45.822Z,76.10
2022-11-22T19:09:13.852Z,78.17
2022-11-22T19:11:41.993Z,79.30
2022-11-22T19:14:10.186Z,74.47
2022-11-22T19:16:39.499Z,70.83
2022-11-22T19:19:08.396Z,75.23
2022-11-22T19:21:36.425Z,73.47
2022-11-22T19:24:19.203Z,76.20
2022-11-22T19:26:47.179Z,83.60
2022-11-22T19:29:15.396Z,76.30
2022-11-22T19:31:44.990Z,81.47
2022-11-22T19:34:13.169Z,74.80
2022-11-22T19:36:41.529Z,81.67
2022-11-22T19:39:13.512Z,75.13
2022-11-22T19:41:42.836Z,82.07
2022-11-22T19:44:11.424Z,78.67
2022-11-22T19:46:41.453Z,74.10
2022-11-22T19:49:11.269Z,75.63
2022-11-22T19:51:39.303Z,66.43
2022-11-22T19:54:07.848Z,77.53
2022-11-22T19:56:37.593Z,79.43
2022-11-22T19:59:07.692Z,76.97
2022-11-22T20:01:36.268Z,71.47
2022-11-22T20:04:06.023Z,73.97
2022-11-22T20:06:36.455Z,80.63
2022-11-22T20:09:05.984Z,80.23
2022-11-22T20:11:33.936Z,84.83
2022-11-22T20:14:02.027Z,85.63
2022-11-22T20:16:32.073Z,73.60
2022-11-22T20:19:01.600Z,80.97
2022-11-22T20:21:31.826Z,71.17
2022-11-22T20:24:01.970Z,75.97
2022-11-22T20:26:31.597Z,79.30
2022-11-22T20:29:01.002Z,77.40
2022-11-22T20:31:31.085Z,82.23
2022-11-22T20:34:00.686Z,79.23
2022-11-22T20:36:30.297Z,85.90
2022-11-22T20:38:58.978Z,84.40
2022-11-22T20:41:30.292Z,77.20
2022-11-22T20:43:58.205Z,84.47
2022-11-22T20:46:27.795Z,80.67
2022-11-22T20:48:58.094Z,76.03
2022-11-22T20:51:27.931Z,86.07
2022-11-22T20:53:56.392Z,74.27
2022-11-22T20:56:25.239Z,81.00
2022-11-22T20:58:54.889Z,73.93
2022-11-22T21:01:24.612Z,71.43
2022-11-22T21:03:53.747Z,77.70
2022-11-22T21:07:11.862Z,82.17
2022-11-22T21:09:39.856Z,69.50
2022-11-22T21:12:07.889Z,75.03
2022-11-22T21:14:37.133Z,74.50
2022-11-22T21:17:29.912Z,84.30
2022-11-22T21:19:52.941Z,80.40
2022-11-22T21:22:20.905Z,80.73
2022-11-22T21:24:49.005Z,86.27
2022-11-22T21:27:16.879Z,80.13
2022-11-22T21:29:46.173Z,81.80
2022-11-22T21:32:14.907Z,87.43
2022-11-22T21:34:42.893Z,80.13
2022-11-22T21:37:10.803Z,78.57
2022-11-22T21:39:38.682Z,70.93
2022-11-22T21:42:06.703Z,77.67
2022-11-22T21:44:34.774Z,80.87
2022-11-22T21:47:04.052Z,79.10
2022-11-22T21:49:31.936Z,77.07
2022-11-22T21:52:00.042Z,82.17
2022-11-22T21:54:28.056Z,74.83
2022-11-22T21:57:01.272Z,86.00
2022-11-22T21:59:30.904Z,81.27
2022-11-22T22:01:59.057Z,74.50
2022-11-22T22:04:28.392Z,75.37
2022-11-22T22:06:56.316Z,85.20
2022-11-22T22:09:24.294Z,78.93
2022-11-22T22:11:52.218Z,72.83
2022-11-22T22:14:20.196Z,80.67
2022-11-22T22:16:48.163Z,82.97
2022-11-22T22:19:16.264Z,81.83
2022-11-22T22:21:45.772Z,75.30
2022-11-22T22:24:13.798Z,82.53
2022-11-22T22:26:42.296Z,79.57
2022-11-22T22:29:10.271Z,81.73
2022-11-22T22:31:38.210Z,80.20
2022-11-22T22:34:06.161Z,74.87
2022-11-22T22:36:34.045Z,80.63
2022-11-22T22:39:03.456Z,80.07
2022-11-22T22:41:31.376Z,88.33
2022-11-22T22:43:59.431Z,79.67
2022-11-22T22:46:27.375Z,64.87
2022-11-22T22:48:56.123Z,76.50
2022-11-22T22:51:31.999Z,74.77
2022-11-22T22:54:01.542Z,67.67
2022-11-22T22:56:32.324Z,73.03
2022-11-22T22:59:00.936Z,80.07
2022-11-22T23:01:30.709Z,78.93
2022-11-22T23:04:00.556Z,85.57
2022-11-22T23:06:30.305Z,75.43
2022-11-22T23:08:59.126Z,78.03
2022-11-22T23:11:43.184Z,80.30
2022-11-22T23:14:13.047Z,75.33
2022-11-22T23:16:41.489Z,80.33
2022-11-22T23:19:09.934Z,88.97
2022-11-22T23:21:37.959Z,76.87
2022-11-22T23:24:07.120Z,79.27
2022-11-22T23:26:35.163Z,75.63
2022-11-22T23:29:03.076Z,77.53
2022-11-22T23:31:32.568Z,81.30
2022-11-22T23:34:01.210Z,78.17
2022-11-22T23:36:29.616Z,77.70
2022-11-22T23:38:57.539Z,76.67
2022-11-22T23:41:26.295Z,83.47
2022-11-22T23:43:55.818Z,68.57
2022-11-22T23:46:26.856Z,82.10
2022-11-22T23:48:57.782Z,84.77
2022-11-22T23:51:26.648Z,78.93
2022-11-22T23:53:58.257Z,75.17
2022-11-22T23:56:27.131Z,83.97
2022-11-22T23:58:55.264Z,83.57
